sensor_id;sensor_type;location;lat;lon;timestamp;temperature;humidity
7248;DHT22;3665;51.034;13.642;2022-10-31T00:09:58;14.30;1.00
7248;DHT22;3665;51.034;13.642;2022-10-31T00:14:44;14.30;1.00
7248;DHT22;3665;51.034;13.642;2022-10-31T00:19:32;14.30;1.00
7248;DHT22;3665;51.034;13.642;2022-10-31T00:24:19;14.20;1.00
7248;DHT22;3665;51.034;13.642;2022-10-31T00:29:09;14.20;1.00
7248;DHT22;3665;51.034;13.642;2022-10-31T00:33:57;14.10;1.00
7248;DHT22;3665;51.034;13.642;2022-10-31T00:38:48;14.20;1.00
7248;DHT22;3665;51.034;13.642;2022-10-31T00:43:32;14.20;1.00
7248;DHT22;3665;51.034;13.642;2022-10-31T00:48:24;14.20;1.00
7248;DHT22;3665;51.034;13.642;2022-10-31T00:53:08;14.30;1.00
7248;DHT22;3665;51.034;13.642;2022-10-31T00:57:56;14.40;1.00
7248;DHT22;3665;51.034;13.642;2022-10-31T01:02:43;14.50;1.00
7248;DHT22;3665;51.034;13.642;2022-10-31T01:07:35;14.50;1.00
7248;DHT22;3665;51.034;13.642;2022-10-31T01:12:29;14.50;1.00
7248;DHT22;3665;51.034;13.642;2022-10-31T01:17:58;14.40;1.00
7248;DHT22;3665;51.034;13.642;2022-10-31T01:22:47;14.10;1.00
7248;DHT22;3665;51.034;13.642;2022-10-31T01:27:33;13.80;1.00
7248;DHT22;3665;51.034;13.642;2022-10-31T01:32:20;13.60;1.00
7248;DHT22;3665;51.034;13.642;2022-10-31T01:37:08;13.40;1.00
7248;DHT22;3665;51.034;13.642;2022-10-31T01:42:49;13.30;1.00
7248;DHT22;3665;51.034;13.642;2022-10-31T01:47:48;13.30;1.00
7248;DHT22;3665;51.034;13.642;2022-10-31T01:52:44;13.30;1.00
7248;DHT22;3665;51.034;13.642;2022-10-31T01:57:45;13.30;1.00
7248;DHT22;3665;51.034;13.642;2022-10-31T02:02:37;13.30;1.00
7248;DHT22;3665;51.034;13.642;2022-10-31T02:07:32;13.10;1.00
7248;DHT22;3665;51.034;13.642;2022-10-31T02:12:31;13.20;1.00
7248;DHT22;3665;51.034;13.642;2022-10-31T02:17:34;13.20;1.00
7248;DHT22;3665;51.034;13.642;2022-10-31T02:22:43;13.10;1.00
7248;DHT22;3665;51.034;13.642;2022-10-31T02:29:20;13.20;1.00
7248;DHT22;3665;51.034;13.642;2022-10-31T02:34:24;13.30;1.00
7248;DHT22;3665;51.034;13.642;2022-10-31T02:39:15;13.30;1.00
7248;DHT22;3665;51.034;13.642;2022-10-31T02:44:21;13.20;1.00
7248;DHT22;3665;51.034;13.642;2022-10-31T02:49:56;13.30;1.00
7248;DHT22;3665;51.034;13.642;2022-10-31T02:54:53;13.30;1.00
7248;DHT22;3665;51.034;13.642;2022-10-31T02:59:47;13.40;1.00
7248;DHT22;3665;51.034;13.642;2022-10-31T03:04:56;13.40;1.00
7248;DHT22;3665;51.034;13.642;2022-10-31T03:10:22;13.40;1.00
7248;DHT22;3665;51.034;13.642;2022-10-31T03:15:59;13.10;1.00
7248;DHT22;3665;51.034;13.642;2022-10-31T03:27:42;13.20;1.00
7248;DHT22;3665;51.034;13.642;2022-10-31T03:32:59;13.20;1.00
7248;DHT22;3665;51.034;13.642;2022-10-31T03:38:10;13.20;1.00
7248;DHT22;3665;51.034;13.642;2022-10-31T03:43:28;13.10;1.00
7248;DHT22;3665;51.034;13.642;2022-10-31T03:48:34;13.10;1.00
7248;DHT22;3665;51.034;13.642;2022-10-31T03:54:38;12.90;1.00
7248;DHT22;3665;51.034;13.642;2022-10-31T04:00:30;12.70;1.00
7248;DHT22;3665;51.034;13.642;2022-10-31T04:05:35;12.40;1.00
7248;DHT22;3665;51.034;13.642;2022-10-31T04:11:03;12.40;1.00
7248;DHT22;3665;51.034;13.642;2022-10-31T04:17:01;12.30;1.00
7248;DHT22;3665;51.034;13.642;2022-10-31T04:22:21;12.20;1.00
7248;DHT22;3665;51.034;13.642;2022-10-31T04:27:07;12.00;1.00
7248;DHT22;3665;51.034;13.642;2022-10-31T04:31:54;11.90;1.00
7248;DHT22;3665;51.034;13.642;2022-10-31T04:42:04;11.90;1.00
7248;DHT22;3665;51.034;13.642;2022-10-31T04:46:48;11.80;1.00
7248;DHT22;3665;51.034;13.642;2022-10-31T04:58:02;11.80;1.00
7248;DHT22;3665;51.034;13.642;2022-10-31T05:02:51;11.70;1.00
7248;DHT22;3665;51.034;13.642;2022-10-31T05:07:38;11.70;1.00
7248;DHT22;3665;51.034;13.642;2022-10-31T05:12:24;11.60;1.00
7248;DHT22;3665;51.034;13.642;2022-10-31T05:24:26;11.50;1.00
7248;DHT22;3665;51.034;13.642;2022-10-31T05:29:36;11.50;1.00
7248;DHT22;3665;51.034;13.642;2022-10-31T05:34:51;11.60;1.00
7248;DHT22;3665;51.034;13.642;2022-10-31T05:46:38;11.70;1.00
7248;DHT22;3665;51.034;13.642;2022-10-31T05:52:59;11.80;1.00
7248;DHT22;3665;51.034;13.642;2022-10-31T06:12:56;12.10;1.00
7248;DHT22;3665;51.034;13.642;2022-10-31T06:18:26;12.20;1.00
7248;DHT22;3665;51.034;13.642;2022-10-31T06:24:10;12.20;1.00
7248;DHT22;3665;51.034;13.642;2022-10-31T06:42:41;12.70;1.00
7248;DHT22;3665;51.034;13.642;2022-10-31T06:54:41;12.90;1.00
7248;DHT22;3665;51.034;13.642;2022-10-31T07:06:39;13.30;1.00
7248;DHT22;3665;51.034;13.642;2022-10-31T07:19:08;13.50;1.00
7248;DHT22;3665;51.034;13.642;2022-10-31T07:24:34;13.80;1.00
7248;DHT22;3665;51.034;13.642;2022-10-31T07:36:14;14.30;1.00
7248;DHT22;3665;51.034;13.642;2022-10-31T07:41:57;14.50;1.00
7248;DHT22;3665;51.034;13.642;2022-10-31T07:59:14;15.20;1.00
7248;DHT22;3665;51.034;13.642;2022-10-31T08:04:28;15.40;1.00
7248;DHT22;3665;51.034;13.642;2022-10-31T08:28:02;16.60;1.00
7248;DHT22;3665;51.034;13.642;2022-10-31T09:16:58;18.30;1.00
7248;DHT22;3665;51.034;13.642;2022-10-31T09:23:22;18.60;1.00
7248;DHT22;3665;51.034;13.642;2022-10-31T09:28:19;18.90;1.00
7248;DHT22;3665;51.034;13.642;2022-10-31T09:34:34;18.80;1.00
7248;DHT22;3665;51.034;13.642;2022-10-31T09:40:35;18.90;1.00
7248;DHT22;3665;51.034;13.642;2022-10-31T09:46:04;19.20;1.00
7248;DHT22;3665;51.034;13.642;2022-10-31T09:51:08;19.20;1.00
7248;DHT22;3665;51.034;13.642;2022-10-31T09:56:19;19.40;1.00
7248;DHT22;3665;51.034;13.642;2022-10-31T10:02:25;19.60;1.00
7248;DHT22;3665;51.034;13.642;2022-10-31T10:20:34;19.60;1.00
7248;DHT22;3665;51.034;13.642;2022-10-31T10:31:25;19.50;1.00
7248;DHT22;3665;51.034;13.642;2022-10-31T10:41:53;19.20;1.00
7248;DHT22;3665;51.034;13.642;2022-10-31T10:47:29;19.10;1.00
7248;DHT22;3665;51.034;13.642;2022-10-31T10:52:35;18.90;1.00
7248;DHT22;3665;51.034;13.642;2022-10-31T10:58:09;19.00;1.00
7248;DHT22;3665;51.034;13.642;2022-10-31T11:04:26;19.10;1.00
7248;DHT22;3665;51.034;13.642;2022-10-31T11:09:16;19.00;1.00
7248;DHT22;3665;51.034;13.642;2022-10-31T11:14:22;18.80;1.00
7248;DHT22;3665;51.034;13.642;2022-10-31T11:19:29;18.80;1.00
7248;DHT22;3665;51.034;13.642;2022-10-31T11:24:59;18.70;1.00
7248;DHT22;3665;51.034;13.642;2022-10-31T11:30:21;18.90;1.00
7248;DHT22;3665;51.034;13.642;2022-10-31T11:35:57;18.80;1.00
7248;DHT22;3665;51.034;13.642;2022-10-31T11:41:10;18.90;1.00
7248;DHT22;3665;51.034;13.642;2022-10-31T11:47:11;18.90;1.00
7248;DHT22;3665;51.034;13.642;2022-10-31T11:52:24;19.10;1.00
7248;DHT22;3665;51.034;13.642;2022-10-31T11:58:01;19.00;1.00
7248;DHT22;3665;51.034;13.642;2022-10-31T12:04:10;18.90;1.00
7248;DHT22;3665;51.034;13.642;2022-10-31T12:09:17;18.80;1.00
7248;DHT22;3665;51.034;13.642;2022-10-31T12:14:58;18.80;1.00
7248;DHT22;3665;51.034;13.642;2022-10-31T12:25:54;18.80;1.00
7248;DHT22;3665;51.034;13.642;2022-10-31T12:43:46;19.00;1.00
7248;DHT22;3665;51.034;13.642;2022-10-31T12:55:10;19.10;1.00
7248;DHT22;3665;51.034;13.642;2022-10-31T13:00:14;19.10;1.00
7248;DHT22;3665;51.034;13.642;2022-10-31T13:05:19;19.00;1.00
7248;DHT22;3665;51.034;13.642;2022-10-31T13:22:08;18.90;1.00
7248;DHT22;3665;51.034;13.642;2022-10-31T13:28:59;18.80;1.00
7248;DHT22;3665;51.034;13.642;2022-10-31T14:06:18;18.30;1.00
7248;DHT22;3665;51.034;13.642;2022-10-31T14:24:16;18.00;1.00
7248;DHT22;3665;51.034;13.642;2022-10-31T14:35:58;17.50;1.00
7248;DHT22;3665;51.034;13.642;2022-10-31T14:48:13;16.80;1.00
7248;DHT22;3665;51.034;13.642;2022-10-31T14:53:46;16.40;1.00
7248;DHT22;3665;51.034;13.642;2022-10-31T14:59:26;15.80;1.00
7248;DHT22;3665;51.034;13.642;2022-10-31T15:04:22;15.30;1.00
7248;DHT22;3665;51.034;13.642;2022-10-31T15:14:48;14.60;1.00
7248;DHT22;3665;51.034;13.642;2022-10-31T15:31:56;13.80;49.40
7248;DHT22;3665;51.034;13.642;2022-10-31T15:37:19;13.50;90.90
7248;DHT22;3665;51.034;13.642;2022-10-31T15:42:55;13.20;99.90
7248;DHT22;3665;51.034;13.642;2022-10-31T15:54:17;12.80;99.90
7248;DHT22;3665;51.034;13.642;2022-10-31T15:59:23;12.80;99.90
7248;DHT22;3665;51.034;13.642;2022-10-31T16:04:48;12.80;99.90
7248;DHT22;3665;51.034;13.642;2022-10-31T16:22:59;13.30;99.90
7248;DHT22;3665;51.034;13.642;2022-10-31T16:27:49;13.20;99.90
7248;DHT22;3665;51.034;13.642;2022-10-31T16:33:23;13.20;99.90
7248;DHT22;3665;51.034;13.642;2022-10-31T16:38:11;13.30;99.90
7248;DHT22;3665;51.034;13.642;2022-10-31T16:43:26;13.30;99.90
7248;DHT22;3665;51.034;13.642;2022-10-31T16:49:07;13.20;99.90
7248;DHT22;3665;51.034;13.642;2022-10-31T16:54:10;13.10;99.90
7248;DHT22;3665;51.034;13.642;2022-10-31T16:59:19;13.00;99.90
7248;DHT22;3665;51.034;13.642;2022-10-31T17:04:52;12.90;99.90
7248;DHT22;3665;51.034;13.642;2022-10-31T17:16:32;12.50;99.90
7248;DHT22;3665;51.034;13.642;2022-10-31T17:21:37;12.30;1.00
7248;DHT22;3665;51.034;13.642;2022-10-31T17:38:40;11.90;1.00
7248;DHT22;3665;51.034;13.642;2022-10-31T17:49:27;11.60;1.00
7248;DHT22;3665;51.034;13.642;2022-10-31T17:54:23;11.70;1.00
7248;DHT22;3665;51.034;13.642;2022-10-31T17:59:11;11.80;99.90
7248;DHT22;3665;51.034;13.642;2022-10-31T18:04:17;11.90;99.90
7248;DHT22;3665;51.034;13.642;2022-10-31T18:09:05;12.10;99.90
7248;DHT22;3665;51.034;13.642;2022-10-31T18:13:56;12.20;1.00
7248;DHT22;3665;51.034;13.642;2022-10-31T18:18:56;12.40;92.30
7248;DHT22;3665;51.034;13.642;2022-10-31T18:36:53;12.90;99.90
7248;DHT22;3665;51.034;13.642;2022-10-31T18:49:09;12.60;99.90
7248;DHT22;3665;51.034;13.642;2022-10-31T18:54:09;12.60;99.90
7248;DHT22;3665;51.034;13.642;2022-10-31T18:59:30;12.60;99.90
7248;DHT22;3665;51.034;13.642;2022-10-31T19:05:25;12.40;99.90
7248;DHT22;3665;51.034;13.642;2022-10-31T19:17:37;12.00;1.00
7248;DHT22;3665;51.034;13.642;2022-10-31T19:22:21;11.90;99.90
7248;DHT22;3665;51.034;13.642;2022-10-31T19:28:21;11.80;99.90
7248;DHT22;3665;51.034;13.642;2022-10-31T19:34:25;11.60;99.90
7248;DHT22;3665;51.034;13.642;2022-10-31T19:45:59;11.70;99.90
7248;DHT22;3665;51.034;13.642;2022-10-31T19:51:30;11.80;99.90
7248;DHT22;3665;51.034;13.642;2022-10-31T20:03:30;12.20;1.00
7248;DHT22;3665;51.034;13.642;2022-10-31T20:09:22;12.40;99.90
7248;DHT22;3665;51.034;13.642;2022-10-31T20:29:41;12.60;88.50
7248;DHT22;3665;51.034;13.642;2022-10-31T20:35:49;12.70;32.30
7248;DHT22;3665;51.034;13.642;2022-10-31T20:41:39;12.70;14.20
7248;DHT22;3665;51.034;13.642;2022-10-31T21:04:49;12.60;1.00
7248;DHT22;3665;51.034;13.642;2022-10-31T21:09:49;12.70;1.00
7248;DHT22;3665;51.034;13.642;2022-10-31T21:14:42;12.50;1.00
7248;DHT22;3665;51.034;13.642;2022-10-31T21:19:26;12.40;5.70
7248;DHT22;3665;51.034;13.642;2022-10-31T21:37:52;12.50;1.00
7248;DHT22;3665;51.034;13.642;2022-10-31T21:49:42;12.40;12.90
7248;DHT22;3665;51.034;13.642;2022-10-31T22:01:19;12.60;10.40
7248;DHT22;3665;51.034;13.642;2022-10-31T22:06:08;12.50;29.50
7248;DHT22;3665;51.034;13.642;2022-10-31T22:12:03;12.50;85.40
7248;DHT22;3665;51.034;13.642;2022-10-31T22:29:34;12.30;99.90
7248;DHT22;3665;51.034;13.642;2022-10-31T22:34:43;12.10;99.90
7248;DHT22;3665;51.034;13.642;2022-10-31T22:41:12;11.90;99.90
7248;DHT22;3665;51.034;13.642;2022-10-31T22:45:37;11.80;1.00
7248;DHT22;3665;51.034;13.642;2022-10-31T22:50:21;11.60;1.00
7248;DHT22;3665;51.034;13.642;2022-10-31T22:55:11;11.40;99.90
7248;DHT22;3665;51.034;13.642;2022-10-31T23:00:03;11.30;1.00
7248;DHT22;3665;51.034;13.642;2022-10-31T23:10:39;11.10;1.00
7248;DHT22;3665;51.034;13.642;2022-10-31T23:15:27;11.00;1.00
7248;DHT22;3665;51.034;13.642;2022-10-31T23:20:13;10.90;1.00
7248;DHT22;3665;51.034;13.642;2022-10-31T23:25:02;10.60;99.90
7248;DHT22;3665;51.034;13.642;2022-10-31T23:29:52;10.70;99.90
7248;DHT22;3665;51.034;13.642;2022-10-31T23:34:38;10.60;99.90
7248;DHT22;3665;51.034;13.642;2022-10-31T23:39:46;10.50;99.90
7248;DHT22;3665;51.034;13.642;2022-10-31T23:44:30;10.50;99.90
7248;DHT22;3665;51.034;13.642;2022-10-31T23:49:18;10.50;99.90
7248;DHT22;3665;51.034;13.642;2022-10-31T23:54:08;10.40;99.90
7248;DHT22;3665;51.034;13.642;2022-10-31T23:58:54;10.50;99.90
